createdAt,value
2016-10-12T00:00:07.148Z,1022.96
2016-10-12T00:01:07.823Z,1022.94
2016-10-12T00:02:08.489Z,1022.94
2016-10-12T00:03:09.164Z,1022.94
2016-10-12T00:04:09.849Z,1022.91
2016-10-12T00:05:10.529Z,1022.83
2016-10-12T00:06:11.239Z,1022.92
2016-10-12T00:07:11.937Z,1022.92
2016-10-12T00:08:12.597Z,1022.89
2016-10-12T00:09:13.276Z,1022.91
2016-10-12T00:10:13.943Z,1022.88
2016-10-12T00:11:14.612Z,1022.88
2016-10-12T00:12:15.281Z,1022.86
2016-10-12T00:13:15.938Z,1022.89
2016-10-12T00:14:16.632Z,1022.89
2016-10-12T00:15:17.294Z,1022.87
2016-10-12T00:16:17.962Z,1022.86
2016-10-12T00:17:18.646Z,1022.85
2016-10-12T00:18:19.318Z,1022.82
2016-10-12T00:19:19.993Z,1022.85
2016-10-12T00:20:20.645Z,1022.86
2016-10-12T00:21:21.322Z,1022.83
2016-10-12T00:22:21.990Z,1022.87
2016-10-12T00:23:22.659Z,1022.87
2016-10-12T00:24:23.333Z,1022.83
2016-10-12T00:25:24.023Z,1022.85
2016-10-12T00:26:24.691Z,1022.86
2016-10-12T00:27:25.356Z,1022.92
2016-10-12T00:28:26.085Z,1022.88
2016-10-12T00:29:26.758Z,1022.86
2016-10-12T00:30:27.432Z,1022.91
2016-10-12T00:31:28.103Z,1022.89
2016-10-12T00:32:28.768Z,1022.89
2016-10-12T00:33:29.441Z,1022.86
2016-10-12T00:34:30.112Z,1022.89
2016-10-12T00:35:30.792Z,1022.84
2016-10-12T00:36:31.451Z,1022.86
2016-10-12T00:37:32.132Z,1022.86
2016-10-12T00:38:32.804Z,1022.8
2016-10-12T00:39:33.486Z,1022.8
2016-10-12T00:40:34.156Z,1022.82
2016-10-12T00:41:34.820Z,1022.85
2016-10-12T00:42:35.492Z,1022.84
2016-10-12T00:43:36.159Z,1022.88
2016-10-12T00:44:36.883Z,1022.81
2016-10-12T00:45:37.594Z,1022.84
2016-10-12T00:46:38.257Z,1022.83
2016-10-12T00:47:38.938Z,1022.85
2016-10-12T00:48:39.628Z,1022.83
2016-10-12T00:49:40.301Z,1022.86
2016-10-12T00:50:40.976Z,1022.82
2016-10-12T00:51:41.644Z,1022.84
2016-10-12T00:52:42.323Z,1022.88
2016-10-12T00:53:43.025Z,1022.88
2016-10-12T00:54:43.747Z,1022.85
2016-10-12T00:55:44.505Z,1022.84
2016-10-12T00:56:45.167Z,1022.83
2016-10-12T00:57:45.832Z,1022.86
2016-10-12T00:58:46.500Z,1022.85
2016-10-12T00:59:47.161Z,1022.86
2016-10-12T01:00:47.855Z,1022.91
2016-10-12T01:01:48.526Z,1022.87
2016-10-12T01:02:49.196Z,1022.88
2016-10-12T01:03:49.971Z,1022.88
2016-10-12T01:04:50.639Z,1022.89
2016-10-12T01:05:51.312Z,1022.9
2016-10-12T01:06:51.989Z,1022.88
2016-10-12T01:07:52.660Z,1022.89
2016-10-12T01:08:53.320Z,1022.89
2016-10-12T01:09:54.003Z,1022.89
2016-10-12T01:10:54.669Z,1022.96
2016-10-12T01:11:55.344Z,1022.92
2016-10-12T01:12:56.025Z,1022.91
2016-10-12T01:13:56.692Z,1022.89
2016-10-12T01:14:57.360Z,1022.92
2016-10-12T01:15:58.035Z,1022.89
2016-10-12T01:16:58.711Z,1022.95
2016-10-12T01:17:59.380Z,1022.93
2016-10-12T01:19:00.052Z,1022.92
2016-10-12T01:20:00.725Z,1022.89
2016-10-12T01:21:01.403Z,1022.94
2016-10-12T01:22:02.073Z,1022.9
2016-10-12T01:23:02.742Z,1022.9
2016-10-12T01:24:03.419Z,1022.96
2016-10-12T01:25:04.101Z,1023
2016-10-12T01:26:04.785Z,1022.98
2016-10-12T01:27:05.470Z,1022.88
2016-10-12T01:28:06.155Z,1022.94
2016-10-12T01:29:06.828Z,1022.92
2016-10-12T01:30:07.533Z,1022.87
2016-10-12T01:31:08.219Z,1022.95
2016-10-12T01:32:08.899Z,1022.96
2016-10-12T01:33:09.565Z,1023.02
2016-10-12T01:34:10.242Z,1022.98
2016-10-12T01:35:10.918Z,1022.95
2016-10-12T01:36:11.588Z,1022.95
2016-10-12T01:37:12.253Z,1022.94
2016-10-12T01:38:12.927Z,1022.95
2016-10-12T01:39:13.603Z,1022.94
2016-10-12T01:40:14.275Z,1022.96
2016-10-12T01:41:14.940Z,1022.93
2016-10-12T01:42:15.617Z,1022.96
2016-10-12T01:43:16.290Z,1022.95
2016-10-12T01:44:16.959Z,1022.92
2016-10-12T01:45:17.644Z,1022.98
2016-10-12T01:46:18.304Z,1022.89
2016-10-12T01:47:18.991Z,1022.9
2016-10-12T01:48:19.645Z,1022.93
2016-10-12T01:49:20.332Z,1023
2016-10-12T01:50:20.993Z,1022.96
2016-10-12T01:51:21.667Z,1022.89
2016-10-12T01:52:22.332Z,1023
2016-10-12T01:53:23.018Z,1022.98
2016-10-12T01:54:23.795Z,1022.95
2016-10-12T01:55:24.470Z,1022.98
2016-10-12T01:56:25.139Z,1022.93
2016-10-12T01:57:25.868Z,1022.96
2016-10-12T01:58:26.526Z,1022.96
2016-10-12T01:59:27.196Z,1022.9
2016-10-12T02:00:27.887Z,1022.91
2016-10-12T02:01:28.552Z,1022.89
2016-10-12T02:02:29.216Z,1022.92
2016-10-12T02:03:29.900Z,1022.86
2016-10-12T02:04:30.563Z,1022.86
2016-10-12T02:05:31.241Z,1022.84
2016-10-12T02:06:31.907Z,1022.87
2016-10-12T02:07:32.590Z,1022.86
2016-10-12T02:08:33.253Z,1022.85
2016-10-12T02:09:33.919Z,1022.88
2016-10-12T02:10:34.591Z,1022.83
2016-10-12T02:11:35.263Z,1022.88
2016-10-12T02:12:35.943Z,1022.88
2016-10-12T02:13:36.625Z,1022.91
2016-10-12T02:14:37.291Z,1022.88
2016-10-12T02:15:37.951Z,1022.82
2016-10-12T02:16:38.637Z,1022.84
2016-10-12T02:17:39.310Z,1022.89
2016-10-12T02:18:39.971Z,1022.89
2016-10-12T02:19:40.673Z,1022.89
2016-10-12T02:20:41.344Z,1022.92
2016-10-12T02:21:42.024Z,1022.94
2016-10-12T02:22:42.689Z,1022.92
2016-10-12T02:23:43.360Z,1022.92
2016-10-12T02:24:44.028Z,1022.91
2016-10-12T02:25:44.727Z,1022.91
2016-10-12T02:26:45.405Z,1022.94
2016-10-12T02:27:46.075Z,1022.96
2016-10-12T02:28:46.748Z,1022.96
2016-10-12T02:29:47.415Z,1022.97
2016-10-12T02:30:48.107Z,1022.95
2016-10-12T02:31:48.796Z,1022.96
2016-10-12T02:32:49.468Z,1022.98
2016-10-12T02:33:50.142Z,1022.97
2016-10-12T02:34:50.816Z,1023
2016-10-12T02:35:51.481Z,1023.03
2016-10-12T02:36:52.149Z,1023.05
2016-10-12T02:37:52.846Z,1022.98
2016-10-12T02:38:53.534Z,1023.02
2016-10-12T02:39:54.237Z,1023.08
2016-10-12T02:40:54.907Z,1023.02
2016-10-12T02:41:55.588Z,1023.03
2016-10-12T02:42:56.272Z,1023.03
2016-10-12T02:43:56.957Z,1023.08
2016-10-12T02:44:57.658Z,1023.09
2016-10-12T02:45:58.326Z,1023.04
2016-10-12T02:46:58.991Z,1023.07
2016-10-12T02:47:59.682Z,1023.04
2016-10-12T02:49:00.379Z,1023.06
2016-10-12T02:50:01.044Z,1023.08
2016-10-12T02:51:01.726Z,1023.07
2016-10-12T02:52:02.408Z,1023.09
2016-10-12T02:53:03.081Z,1023.07
2016-10-12T02:54:03.743Z,1023.11
2016-10-12T02:55:04.456Z,1023.14
2016-10-12T02:56:05.132Z,1023.09
2016-10-12T02:57:05.806Z,1023.16
2016-10-12T02:58:06.478Z,1023.16
2016-10-12T02:59:07.141Z,1023.11
2016-10-12T03:00:07.824Z,1023.13
2016-10-12T03:01:08.558Z,1023.08
2016-10-12T03:02:09.260Z,1022.95
2016-10-12T03:03:09.941Z,1022.86
2016-10-12T03:04:10.652Z,1022.83
2016-10-12T03:05:11.403Z,1022.82
2016-10-12T03:06:12.047Z,1022.85
2016-10-12T03:07:12.721Z,1022.88
2016-10-12T03:08:13.393Z,1022.87
2016-10-12T03:09:14.076Z,1022.89
2016-10-12T03:10:14.756Z,1022.85
2016-10-12T03:11:15.436Z,1022.88
2016-10-12T03:12:16.118Z,1022.89
2016-10-12T03:13:16.813Z,1022.9
2016-10-12T03:14:17.542Z,1022.9
2016-10-12T03:15:18.242Z,1022.9
2016-10-12T03:16:18.944Z,1022.95
2016-10-12T03:17:19.638Z,1022.91
2016-10-12T03:18:20.297Z,1022.91
2016-10-12T03:19:20.979Z,1022.92
2016-10-12T03:20:21.643Z,1022.91
2016-10-12T03:21:22.309Z,1022.94
2016-10-12T03:22:22.996Z,1022.94
2016-10-12T03:23:23.667Z,1022.95
2016-10-12T03:24:24.357Z,1022.92
2016-10-12T03:25:25.010Z,1022.91
2016-10-12T03:26:25.682Z,1022.93
2016-10-12T03:27:26.374Z,1022.92
2016-10-12T03:28:27.035Z,1022.91
2016-10-12T03:29:27.727Z,1022.92
2016-10-12T03:30:28.386Z,1022.94
2016-10-12T03:31:29.050Z,1022.93
2016-10-12T03:32:29.746Z,1023
2016-10-12T03:33:30.409Z,1022.97
2016-10-12T03:34:31.088Z,1023
2016-10-12T03:35:31.784Z,1023.01
2016-10-12T03:36:32.455Z,1023
2016-10-12T03:37:33.129Z,1023
2016-10-12T03:38:33.796Z,1023.01
2016-10-12T03:39:34.468Z,1022.92
2016-10-12T03:40:35.134Z,1022.91
2016-10-12T03:41:35.823Z,1022.93
2016-10-12T03:42:36.513Z,1022.93
2016-10-12T03:43:37.207Z,1022.89
2016-10-12T03:44:37.884Z,1022.86
2016-10-12T03:45:38.551Z,1022.94
2016-10-12T03:46:39.223Z,1022.9
2016-10-12T03:47:39.903Z,1022.93
2016-10-12T03:48:40.570Z,1022.92
2016-10-12T03:49:41.252Z,1022.94
2016-10-12T03:50:41.913Z,1022.9
2016-10-12T03:51:42.585Z,1022.91
2016-10-12T03:52:43.260Z,1022.91
2016-10-12T03:53:43.932Z,1022.93
2016-10-12T03:54:44.604Z,1022.92
2016-10-12T03:55:45.284Z,1022.88
2016-10-12T03:56:45.979Z,1022.89
2016-10-12T03:57:46.651Z,1022.93
2016-10-12T03:58:47.336Z,1022.89
2016-10-12T03:59:48.019Z,1022.89
2016-10-12T04:00:48.686Z,1022.9
2016-10-12T04:01:49.368Z,1022.92
2016-10-12T04:02:50.030Z,1022.92
2016-10-12T04:03:50.709Z,1022.95
2016-10-12T04:04:51.376Z,1022.91
2016-10-12T04:05:52.037Z,1022.95
2016-10-12T04:06:52.721Z,1022.94
2016-10-12T04:07:53.399Z,1022.93
2016-10-12T04:08:54.065Z,1022.91
2016-10-12T04:09:54.736Z,1022.96
2016-10-12T04:10:55.411Z,1022.94
2016-10-12T04:11:56.137Z,1022.95
2016-10-12T04:12:56.814Z,1022.98
2016-10-12T04:13:57.478Z,1022.97
2016-10-12T04:14:58.154Z,1022.97
2016-10-12T04:15:58.819Z,1022.99
2016-10-12T04:16:59.499Z,1022.98
2016-10-12T04:18:00.169Z,1022.97
2016-10-12T04:19:00.839Z,1023.04
2016-10-12T04:20:01.514Z,1023.01
2016-10-12T04:21:02.193Z,1023.02
2016-10-12T04:22:02.852Z,1023.02
2016-10-12T04:23:03.534Z,1023.09
2016-10-12T04:24:04.202Z,1023.1
2016-10-12T04:25:04.864Z,1023.11
2016-10-12T04:26:05.547Z,1023.15
2016-10-12T04:27:06.232Z,1023.13
2016-10-12T04:28:06.915Z,1023.17
2016-10-12T04:29:07.622Z,1023.18
2016-10-12T04:30:08.294Z,1023.14
2016-10-12T04:31:08.977Z,1023.1
2016-10-12T04:32:09.652Z,1023.14
2016-10-12T04:33:10.360Z,1023.17
2016-10-12T04:34:11.050Z,1023.17
2016-10-12T04:35:11.739Z,1023.16
2016-10-12T04:36:12.412Z,1023.13
2016-10-12T04:37:13.090Z,1023.19
2016-10-12T04:38:13.787Z,1023.15
2016-10-12T04:39:14.449Z,1023.16
2016-10-12T04:40:15.114Z,1023.17
2016-10-12T04:41:15.795Z,1023.19
2016-10-12T04:42:16.471Z,1023.22
2016-10-12T04:43:17.133Z,1023.17
2016-10-12T04:44:17.799Z,1023.11
2016-10-12T04:45:18.460Z,1023.07
2016-10-12T04:46:19.178Z,1023.07
2016-10-12T04:47:19.874Z,1023.07
2016-10-12T04:48:20.549Z,1023.1
2016-10-12T04:49:21.235Z,1023.12
2016-10-12T04:50:21.936Z,1023.11
2016-10-12T04:51:22.597Z,1023.12
2016-10-12T04:52:23.285Z,1023.11
2016-10-12T04:53:23.945Z,1023.08
2016-10-12T04:54:24.630Z,1023.03
2016-10-12T04:55:25.297Z,1022.99
2016-10-12T04:56:25.981Z,1023.06
2016-10-12T04:57:26.652Z,1023.04
2016-10-12T04:58:27.326Z,1023.04
2016-10-12T04:59:27.986Z,1023.01
2016-10-12T05:00:28.655Z,1023.02
2016-10-12T05:01:29.320Z,1023.02
2016-10-12T05:02:30.009Z,1023.04
2016-10-12T05:03:30.670Z,1023.02
2016-10-12T05:04:31.356Z,1023.03
2016-10-12T05:05:32.023Z,1023.05
2016-10-12T05:06:32.721Z,1023.07
2016-10-12T05:07:33.414Z,1023.07
2016-10-12T05:08:34.086Z,1023.03
2016-10-12T05:09:34.772Z,1023.06
2016-10-12T05:10:35.457Z,1023.05
2016-10-12T05:11:36.135Z,1023.06
2016-10-12T05:12:36.827Z,1023.11
2016-10-12T05:13:37.501Z,1023.08
2016-10-12T05:14:38.176Z,1023.07
2016-10-12T05:15:38.892Z,1023.1
2016-10-12T05:16:39.567Z,1023.11
2016-10-12T05:17:40.314Z,1023.13
2016-10-12T05:18:41.042Z,1023.16
2016-10-12T05:19:41.742Z,1023.17
2016-10-12T05:20:42.431Z,1023.22
2016-10-12T05:21:43.090Z,1023.2
2016-10-12T05:22:43.827Z,1023.24
2016-10-12T05:23:44.510Z,1023.26
2016-10-12T05:24:45.204Z,1023.23
2016-10-12T05:25:46.314Z,1023.2
2016-10-12T05:26:47.025Z,1023.25
2016-10-12T05:27:47.699Z,1023.21
2016-10-12T05:28:48.400Z,1023.17
2016-10-12T05:29:49.071Z,1023.17
2016-10-12T05:30:49.741Z,1023.2
2016-10-12T05:31:50.417Z,1023.23
2016-10-12T05:32:51.096Z,1023.26
2016-10-12T05:33:51.764Z,1023.27
2016-10-12T05:34:52.453Z,1023.26
2016-10-12T05:35:53.118Z,1023.26
2016-10-12T05:36:53.807Z,1023.26
2016-10-12T05:37:54.508Z,1023.29
2016-10-12T05:38:55.207Z,1023.25
2016-10-12T05:39:55.918Z,1023.27
2016-10-12T05:40:56.594Z,1023.29
2016-10-12T05:41:57.268Z,1023.21
2016-10-12T05:42:57.929Z,1023.25
2016-10-12T05:43:58.601Z,1023.23
2016-10-12T05:44:59.261Z,1023.27
2016-10-12T05:45:59.942Z,1023.23
2016-10-12T05:47:00.616Z,1023.27
2016-10-12T05:48:01.293Z,1023.27
2016-10-12T05:49:02.303Z,1023.34
2016-10-12T05:50:02.986Z,1023.31
2016-10-12T05:51:03.663Z,1023.33
2016-10-12T05:52:04.337Z,1023.35
2016-10-12T05:53:05.001Z,1023.37
2016-10-12T05:54:05.678Z,1023.36
2016-10-12T05:55:06.357Z,1023.36
2016-10-12T05:56:09.296Z,1023.35
2016-10-12T05:57:11.269Z,1023.37
2016-10-12T05:58:13.934Z,1023.37
2016-10-12T05:59:16.174Z,1023.38
2016-10-12T06:00:17.128Z,1023.41
2016-10-12T06:01:17.825Z,1023.43
2016-10-12T06:02:18.530Z,1023.43
2016-10-12T06:03:19.202Z,1023.44
2016-10-12T06:04:19.903Z,1023.47
2016-10-12T06:05:20.608Z,1023.52
2016-10-12T06:06:21.267Z,1023.53
2016-10-12T06:07:21.940Z,1023.44
2016-10-12T06:08:22.615Z,1023.49
2016-10-12T06:09:23.283Z,1023.47
2016-10-12T06:10:23.961Z,1023.5
2016-10-12T06:11:24.655Z,1023.52
2016-10-12T06:12:25.325Z,1023.5
2016-10-12T06:13:26.017Z,1023.52
2016-10-12T06:14:26.699Z,1023.54
2016-10-12T06:15:27.373Z,1023.52
2016-10-12T06:16:28.046Z,1023.54
2016-10-12T06:17:28.722Z,1023.54
2016-10-12T06:18:29.438Z,1023.55
2016-10-12T06:19:30.187Z,1023.55
2016-10-12T06:20:30.907Z,1023.52
2016-10-12T06:21:31.675Z,1023.55
2016-10-12T06:22:32.336Z,1023.54
2016-10-12T06:23:33.008Z,1023.52
2016-10-12T06:24:33.684Z,1023.55
2016-10-12T06:25:34.350Z,1023.48
2016-10-12T06:26:35.020Z,1023.55
2016-10-12T06:27:35.688Z,1023.55
2016-10-12T06:28:36.366Z,1023.54
2016-10-12T06:29:37.033Z,1023.56
2016-10-12T06:30:37.705Z,1023.53
2016-10-12T06:31:38.379Z,1023.57
2016-10-12T06:32:39.049Z,1023.55
2016-10-12T06:33:39.721Z,1023.59
2016-10-12T06:34:40.396Z,1023.59
2016-10-12T06:35:41.074Z,1023.59
2016-10-12T06:36:41.777Z,1023.59
2016-10-12T06:37:42.463Z,1023.63
2016-10-12T06:38:43.137Z,1023.61
2016-10-12T06:39:43.813Z,1023.61
2016-10-12T06:40:44.495Z,1023.63
2016-10-12T06:41:45.160Z,1023.63
2016-10-12T06:42:45.852Z,1023.65
2016-10-12T06:43:46.531Z,1023.65
2016-10-12T06:44:47.202Z,1023.68
2016-10-12T06:45:47.874Z,1023.64
2016-10-12T06:46:48.571Z,1023.63
2016-10-12T06:47:49.238Z,1023.62
2016-10-12T06:48:49.910Z,1023.61
2016-10-12T06:49:50.585Z,1023.6
2016-10-12T06:50:51.261Z,1023.61
2016-10-12T06:51:51.932Z,1023.63
2016-10-12T06:52:52.598Z,1023.64
2016-10-12T06:53:53.273Z,1023.68
2016-10-12T06:54:53.943Z,1023.73
2016-10-12T06:55:54.708Z,1023.71
2016-10-12T06:56:55.346Z,1023.74
2016-10-12T06:57:56.064Z,1023.77
2016-10-12T06:58:56.735Z,1023.71
2016-10-12T06:59:57.467Z,1023.68
2016-10-12T07:00:58.135Z,1023.67
2016-10-12T07:01:58.804Z,1023.7
2016-10-12T07:02:59.479Z,1023.7
2016-10-12T07:04:00.149Z,1023.74
2016-10-12T07:05:00.816Z,1023.77
2016-10-12T07:06:01.499Z,1023.79
2016-10-12T07:07:02.168Z,1023.83
2016-10-12T07:08:02.886Z,1023.86
2016-10-12T07:09:03.556Z,1023.86
2016-10-12T07:10:04.230Z,1023.81
2016-10-12T07:11:04.902Z,1023.86
2016-10-12T07:12:05.561Z,1023.86
2016-10-12T07:13:06.247Z,1023.86
2016-10-12T07:14:06.907Z,1023.86
2016-10-12T07:15:07.596Z,1023.83
2016-10-12T07:16:08.268Z,1023.86
2016-10-12T07:17:08.948Z,1023.89
2016-10-12T07:18:09.615Z,1023.87
2016-10-12T07:19:10.406Z,1023.87
2016-10-12T07:20:11.076Z,1023.83
2016-10-12T07:21:11.738Z,1023.83
2016-10-12T07:22:12.400Z,1023.83
2016-10-12T07:23:13.072Z,1023.92
2016-10-12T07:24:13.746Z,1023.88
2016-10-12T07:25:14.475Z,1023.93
2016-10-12T07:26:15.293Z,1023.9
2016-10-12T07:27:16.026Z,1023.93
2016-10-12T07:28:16.696Z,1023.95
2016-10-12T07:29:17.513Z,1023.98
2016-10-12T07:30:18.225Z,1023.95
2016-10-12T07:31:18.914Z,1023.98
2016-10-12T07:32:19.585Z,1024.01
2016-10-12T07:33:20.272Z,1023.97
2016-10-12T07:34:20.988Z,1023.98
2016-10-12T07:35:21.660Z,1023.99
2016-10-12T07:36:22.335Z,1023.95
2016-10-12T07:37:23.303Z,1023.91
2016-10-12T07:38:24.115Z,1023.88
2016-10-12T07:39:24.811Z,1023.88
2016-10-12T07:40:25.483Z,1023.88
2016-10-12T07:41:26.156Z,1023.92
2016-10-12T07:42:26.847Z,1023.87
2016-10-12T07:43:27.615Z,1023.86
2016-10-12T07:44:28.342Z,1023.83
2016-10-12T07:45:29.056Z,1023.83
2016-10-12T07:46:29.739Z,1023.84
2016-10-12T07:47:30.451Z,1023.87
2016-10-12T07:48:31.163Z,1023.86
2016-10-12T07:49:31.919Z,1023.88
2016-10-12T07:50:32.607Z,1023.84
2016-10-12T07:51:33.307Z,1023.85
2016-10-12T07:52:34.076Z,1023.88
2016-10-12T07:53:34.804Z,1023.89
2016-10-12T07:54:35.520Z,1023.8
2016-10-12T07:55:36.294Z,1023.81
2016-10-12T07:56:37.167Z,1023.84
2016-10-12T07:57:37.826Z,1023.86
2016-10-12T07:58:38.532Z,1023.89
2016-10-12T07:59:39.312Z,1023.9
2016-10-12T08:00:40.084Z,1023.89
2016-10-12T08:01:40.844Z,1023.85
2016-10-12T08:02:41.689Z,1023.84
2016-10-12T08:03:42.481Z,1023.81
2016-10-12T08:04:43.238Z,1023.84
2016-10-12T08:05:43.948Z,1023.86
2016-10-12T08:06:44.624Z,1023.87
2016-10-12T08:07:45.316Z,1023.89
2016-10-12T08:08:46.032Z,1023.9
2016-10-12T08:09:46.755Z,1023.92
2016-10-12T08:10:47.470Z,1023.92
2016-10-12T08:11:48.282Z,1023.86
2016-10-12T08:12:49.009Z,1023.86
2016-10-12T08:13:49.697Z,1023.85
2016-10-12T08:14:50.452Z,1023.83
2016-10-12T08:15:51.190Z,1023.84
2016-10-12T08:16:52.054Z,1023.87
2016-10-12T08:17:52.764Z,1023.9
2016-10-12T08:18:53.481Z,1023.88
2016-10-12T08:19:54.183Z,1023.93
2016-10-12T08:20:54.875Z,1023.91
2016-10-12T08:21:55.686Z,1023.94
2016-10-12T08:22:56.384Z,1023.97
2016-10-12T08:23:57.050Z,1024.02
2016-10-12T08:24:57.774Z,1024.02
2016-10-12T08:25:58.448Z,1024.06
2016-10-12T08:26:59.217Z,1024.07
2016-10-12T08:28:00.070Z,1024.11
2016-10-12T08:29:00.746Z,1024.06
2016-10-12T08:30:01.429Z,1024.08
2016-10-12T08:31:02.140Z,1024.1
2016-10-12T08:32:02.937Z,1024.08
2016-10-12T08:33:03.615Z,1024.12
2016-10-12T08:34:04.421Z,1024.16
2016-10-12T08:35:05.108Z,1024.11
2016-10-12T08:36:05.938Z,1024.15
2016-10-12T08:37:06.657Z,1024.14
2016-10-12T08:38:07.371Z,1024.08
2016-10-12T08:39:08.098Z,1024.1
2016-10-12T08:40:08.784Z,1024.12
2016-10-12T08:41:09.496Z,1024.13
2016-10-12T08:42:10.283Z,1024.11
2016-10-12T08:43:10.971Z,1024.18
2016-10-12T08:44:11.680Z,1024.15
2016-10-12T08:45:12.426Z,1024.12
2016-10-12T08:46:13.122Z,1024.08
2016-10-12T08:47:13.841Z,1024.05
2016-10-12T08:48:14.523Z,1024.08
2016-10-12T08:49:15.255Z,1024.07
2016-10-12T08:50:15.965Z,1024.04
2016-10-12T08:51:16.640Z,1024
2016-10-12T08:52:17.367Z,1024
2016-10-12T08:53:18.034Z,1024.01
2016-10-12T08:54:18.706Z,1024
2016-10-12T08:55:19.432Z,1024.04
2016-10-12T08:56:20.124Z,1024.03
2016-10-12T08:57:20.790Z,1024.01
2016-10-12T08:58:21.474Z,1023.99
2016-10-12T08:59:22.176Z,1023.96
2016-10-12T09:00:22.884Z,1023.94
2016-10-12T09:01:23.598Z,1023.92
2016-10-12T09:02:24.314Z,1023.92
2016-10-12T09:03:25.058Z,1023.89
2016-10-12T09:04:25.743Z,1023.87
2016-10-12T09:05:26.476Z,1023.89
2016-10-12T09:06:27.183Z,1023.93
2016-10-12T09:07:27.902Z,1023.85
2016-10-12T09:08:28.589Z,1023.84
2016-10-12T09:09:29.283Z,1023.86
2016-10-12T09:10:30.003Z,1023.84
2016-10-12T09:11:30.699Z,1023.8
2016-10-12T09:12:31.374Z,1023.82
2016-10-12T09:13:32.087Z,1023.8
2016-10-12T09:14:32.836Z,1023.82
2016-10-12T09:15:33.650Z,1023.82
2016-10-12T09:16:34.344Z,1023.86
2016-10-12T09:17:35.039Z,1023.79
2016-10-12T09:18:35.739Z,1023.75
2016-10-12T09:19:36.423Z,1023.75
2016-10-12T09:20:37.099Z,1023.74
2016-10-12T09:21:37.802Z,1023.77
2016-10-12T09:22:38.499Z,1023.81
2016-10-12T09:23:39.172Z,1023.81
2016-10-12T09:24:39.859Z,1023.79
2016-10-12T09:25:40.555Z,1023.77
2016-10-12T09:26:41.252Z,1023.81
2016-10-12T09:27:41.961Z,1023.83
2016-10-12T09:28:42.656Z,1023.85
2016-10-12T09:29:43.392Z,1023.8
2016-10-12T09:30:44.131Z,1023.82
2016-10-12T09:31:44.821Z,1023.86
2016-10-12T09:32:45.539Z,1023.8
2016-10-12T09:33:46.253Z,1023.78
2016-10-12T09:34:46.954Z,1023.77
2016-10-12T09:35:47.644Z,1023.75
2016-10-12T09:36:48.475Z,1023.73
2016-10-12T09:37:49.019Z,1023.77
2016-10-12T09:38:49.745Z,1023.73
2016-10-12T09:39:50.469Z,1023.76
2016-10-12T09:40:51.190Z,1023.74
2016-10-12T09:41:51.882Z,1023.7
2016-10-12T09:42:52.567Z,1023.74
2016-10-12T09:43:53.232Z,1023.69
2016-10-12T09:44:53.937Z,1023.63
2016-10-12T09:45:54.639Z,1023.62
2016-10-12T09:46:55.423Z,1023.64
2016-10-12T09:47:56.106Z,1023.64
2016-10-12T09:48:56.809Z,1023.73
2016-10-12T09:49:57.545Z,1023.72
2016-10-12T09:50:58.244Z,1023.7
2016-10-12T09:51:59.034Z,1023.69
2016-10-12T09:52:59.790Z,1023.74
2016-10-12T09:54:00.493Z,1023.75
2016-10-12T09:55:01.190Z,1023.75
2016-10-12T09:56:01.903Z,1023.73
2016-10-12T09:57:02.600Z,1023.73
2016-10-12T09:58:03.272Z,1023.68
2016-10-12T09:59:04.063Z,1023.71
2016-10-12T10:00:04.801Z,1023.62
2016-10-12T10:01:05.497Z,1023.6
2016-10-12T10:02:06.201Z,1023.62
2016-10-12T10:03:06.896Z,1023.65
2016-10-12T10:04:07.594Z,1023.63
2016-10-12T10:05:08.278Z,1023.65
2016-10-12T10:06:08.958Z,1023.65
2016-10-12T10:07:09.663Z,1023.62
2016-10-12T10:08:10.355Z,1023.57
2016-10-12T10:09:11.043Z,1023.59
2016-10-12T10:10:11.745Z,1023.57
2016-10-12T10:11:12.419Z,1023.62
2016-10-12T10:12:13.112Z,1023.58
2016-10-12T10:13:13.798Z,1023.62
2016-10-12T10:14:14.520Z,1023.62
2016-10-12T10:15:15.240Z,1023.58
2016-10-12T10:16:15.935Z,1023.57
2016-10-12T10:17:16.596Z,1023.56
2016-10-12T10:18:17.278Z,1023.56
2016-10-12T10:19:17.983Z,1023.55
2016-10-12T10:20:18.662Z,1023.56
2016-10-12T10:21:19.375Z,1023.62
2016-10-12T10:22:20.093Z,1023.62
2016-10-12T10:23:20.784Z,1023.61
2016-10-12T10:24:21.462Z,1023.61
2016-10-12T10:25:22.159Z,1023.59
2016-10-12T10:26:22.856Z,1023.64
2016-10-12T10:27:23.539Z,1023.62
2016-10-12T10:28:24.241Z,1023.62
2016-10-12T10:29:24.953Z,1023.57
2016-10-12T10:30:25.638Z,1023.58
2016-10-12T10:31:26.306Z,1023.57
2016-10-12T10:32:26.981Z,1023.57
2016-10-12T10:33:27.662Z,1023.53
2016-10-12T10:34:28.335Z,1023.56
2016-10-12T10:35:29.059Z,1023.56
2016-10-12T10:36:29.798Z,1023.56
2016-10-12T10:37:30.498Z,1023.55
2016-10-12T10:38:31.179Z,1023.53
2016-10-12T10:39:31.869Z,1023.51
2016-10-12T10:40:32.558Z,1023.5
2016-10-12T10:41:33.247Z,1023.5
2016-10-12T10:42:33.917Z,1023.58
2016-10-12T10:43:34.638Z,1023.58
2016-10-12T10:44:35.415Z,1023.49
2016-10-12T10:45:36.109Z,1023.5
2016-10-12T10:46:36.811Z,1023.47
2016-10-12T10:47:37.523Z,1023.56
2016-10-12T10:48:38.209Z,1023.6
2016-10-12T10:49:38.912Z,1023.46
2016-10-12T10:50:39.638Z,1023.57
2016-10-12T10:51:40.340Z,1023.44
2016-10-12T10:52:41.115Z,1023.47
2016-10-12T10:53:41.798Z,1023.44
2016-10-12T10:54:42.569Z,1023.43
2016-10-12T10:55:43.312Z,1023.45
2016-10-12T10:56:44.024Z,1023.44
2016-10-12T10:57:44.753Z,1023.41
2016-10-12T10:58:45.497Z,1023.4
2016-10-12T10:59:46.315Z,1023.41
2016-10-12T11:00:47.141Z,1023.46
2016-10-12T11:01:47.859Z,1023.44
2016-10-12T11:02:48.548Z,1023.35
2016-10-12T11:03:49.246Z,1023.36
2016-10-12T11:04:49.945Z,1023.37
2016-10-12T11:05:50.697Z,1023.35
2016-10-12T11:06:51.525Z,1023.35
2016-10-12T11:07:52.205Z,1023.37
2016-10-12T11:08:52.927Z,1023.37
2016-10-12T11:09:53.650Z,1023.34
2016-10-12T11:10:54.387Z,1023.36
2016-10-12T11:11:55.083Z,1023.33
2016-10-12T11:12:55.797Z,1023.33
2016-10-12T11:13:56.490Z,1023.4
2016-10-12T11:14:57.204Z,1023.37
2016-10-12T11:15:57.894Z,1023.4
2016-10-12T11:16:58.573Z,1023.33
2016-10-12T11:17:59.275Z,1023.37
2016-10-12T11:18:59.989Z,1023.37
2016-10-12T11:20:00.687Z,1023.37
2016-10-12T11:21:01.376Z,1023.34
2016-10-12T11:22:02.091Z,1023.41
2016-10-12T11:23:02.780Z,1023.38
2016-10-12T11:24:03.503Z,1023.39
2016-10-12T11:25:04.210Z,1023.4
2016-10-12T11:26:04.904Z,1023.38
2016-10-12T11:27:05.600Z,1023.4
2016-10-12T11:28:06.287Z,1023.41
2016-10-12T11:29:06.980Z,1023.43
2016-10-12T11:30:07.671Z,1023.37
2016-10-12T11:31:08.412Z,1023.39
2016-10-12T11:32:09.152Z,1023.4
2016-10-12T11:33:09.848Z,1023.34
2016-10-12T11:34:10.571Z,1023.4
2016-10-12T11:35:11.322Z,1023.33
2016-10-12T11:36:12.035Z,1023.34
2016-10-12T11:37:12.730Z,1023.27
2016-10-12T11:38:13.448Z,1023.36
2016-10-12T11:39:14.125Z,1023.31
2016-10-12T11:40:14.801Z,1023.3
2016-10-12T11:41:15.476Z,1023.28
2016-10-12T11:42:16.139Z,1023.27
2016-10-12T11:43:16.842Z,1023.25
2016-10-12T11:44:17.527Z,1023.24
2016-10-12T11:45:18.222Z,1023.25
2016-10-12T11:46:18.930Z,1023.27
2016-10-12T11:47:19.614Z,1023.36
2016-10-12T11:48:20.293Z,1023.27
2016-10-12T11:49:20.949Z,1023.28
2016-10-12T11:50:21.614Z,1023.29
2016-10-12T11:51:22.285Z,1023.32
2016-10-12T11:52:22.959Z,1023.34
2016-10-12T11:53:23.691Z,1023.32
2016-10-12T11:54:24.385Z,1023.34
2016-10-12T11:55:25.055Z,1023.38
2016-10-12T11:56:25.776Z,1023.35
2016-10-12T11:57:26.504Z,1023.33
2016-10-12T11:58:27.217Z,1023.36
2016-10-12T11:59:27.881Z,1023.38
2016-10-12T12:00:28.548Z,1023.34
2016-10-12T12:01:29.218Z,1023.37
2016-10-12T12:02:29.931Z,1023.36
2016-10-12T12:03:30.617Z,1023.35
2016-10-12T12:04:31.293Z,1023.35
2016-10-12T12:05:31.976Z,1023.4
2016-10-12T12:06:32.634Z,1023.38
2016-10-12T12:07:33.355Z,1023.39
2016-10-12T12:08:34.034Z,1023.4
2016-10-12T12:09:34.821Z,1023.41
2016-10-12T12:10:35.494Z,1023.37
2016-10-12T12:11:36.188Z,1023.36
2016-10-12T12:12:36.868Z,1023.34
2016-10-12T12:13:37.545Z,1023.34
2016-10-12T12:14:38.217Z,1023.32
2016-10-12T12:15:38.896Z,1023.28
2016-10-12T12:16:39.579Z,1023.35